Time;durP1;ratioP1;P1;durP2;ratioP2;P2;SDS_P1;SDS_P2;PMS_P1;PMS_P2;Temp;Humidity;BMP_temperature;BMP_pressure;BME280_temperature;BME280_humidity;BME280_pressure;Samples;Min_cycle;Max_cycle;Signal;HPM_P1;HPM_P2
2022/08/12 00:44:24;;;;;;;7.82;3.45;;;;;;;;;;5093197;28;20051;-70
2022/08/12 00:46:53;;;;;;;8.50;3.50;;;;;;;;;;5092787;28;20098;-70
2022/08/12 00:49:20;;;;;;;7.82;2.95;;;;;;;;;;5093140;28;20016;-70
2022/08/12 00:52:08;;;;;;;4.63;1.92;;;;;;;;;;5092873;28;20024;-70
2022/08/12 00:54:43;;;;;;;2.72;1.80;;;;;;;;;;5093233;28;20377;-70
2022/08/12 00:57:12;;;;;;;2.88;2.00;;;;;;;;;;5092794;28;20373;-70
2022/08/12 01:00:04;;;;;;;6.85;2.05;;;;;;;;;;5092739;28;20020;-70
2022/08/12 01:02:33;;;;;;;2.47;1.52;;;;;;;;;;5081758;28;20046;-70
2022/08/12 01:13:24;;;;;;;3.20;2.00;;;;;;;;;;5092729;28;20078;-71
2022/08/12 01:15:52;;;;;;;3.50;1.70;;;;;;;;;;5092643;28;20439;-71
2022/08/12 01:18:19;;;;;;;3.63;1.90;;;;;;;;;;5092893;28;20031;-70
2022/08/12 01:20:50;;;;;;;4.88;1.80;;;;;;;;;;5093653;28;20055;-70
2022/08/12 01:23:30;;;;;;;1.90;1.70;;;;;;;;;;5096142;28;20028;-70
2022/08/12 01:25:58;;;;;;;3.95;1.70;;;;;;;;;;5096352;28;20070;-76
2022/08/12 01:28:26;;;;;;;2.17;1.83;;;;;;;;;;5077931;28;20165;-71
2022/08/12 01:30:53;;;;;;;3.35;1.98;;;;;;;;;;5096106;28;20016;-70
2022/08/12 01:33:20;;;;;;;5.22;1.90;;;;;;;;;;5096163;28;20118;-70
2022/08/12 01:35:57;;;;;;;1.92;1.60;;;;;;;;;;5096299;28;20449;-71
2022/08/12 01:38:24;;;;;;;2.88;1.52;;;;;;;;;;5096019;28;20111;-71
2022/08/12 01:40:51;;;;;;;2.88;1.60;;;;;;;;;;5095764;28;20449;-70
2022/08/12 01:43:20;;;;;;;4.45;1.90;;;;;;;;;;5095715;28;20051;-71
2022/08/12 01:46:05;;;;;;;3.60;1.63;;;;;;;;;;5078213;28;20103;-71
2022/08/12 01:49:01;;;;;;;6.43;1.90;;;;;;;;;;5096220;28;20028;-70
2022/08/12 01:51:41;;;;;;;5.10;1.80;;;;;;;;;;5095960;28;20023;-71
2022/08/12 01:54:17;;;;;;;3.13;1.80;;;;;;;;;;5095891;28;20024;-71
2022/08/12 01:57:05;;;;;;;5.28;1.88;;;;;;;;;;5095902;28;20071;-70
2022/08/12 01:59:55;;;;;;;5.85;1.60;;;;;;;;;;5095466;28;20473;-71
2022/08/12 02:02:26;;;;;;;8.65;1.80;;;;;;;;;;5095780;28;20027;-71
2022/08/12 02:11:27;;;;;;;2.53;1.80;;;;;;;;;;5095934;28;20388;-71
2022/08/12 02:14:05;;;;;;;3.60;1.80;;;;;;;;;;5095239;28;20016;-72
2022/08/12 02:16:40;;;;;;;2.97;1.70;;;;;;;;;;5095214;28;20043;-71
2022/08/12 02:19:40;;;;;;;4.97;1.90;;;;;;;;;;5095545;28;20044;-70
2022/08/12 02:22:13;;;;;;;6.20;1.80;;;;;;;;;;5098674;28;20034;-78
2022/08/12 02:24:43;;;;;;;9.43;2.00;;;;;;;;;;5079621;28;20016;-78
2022/08/12 02:27:09;;;;;;;5.97;2.15;;;;;;;;;;5098731;28;20078;-78
2022/08/12 02:29:35;;;;;;;2.28;1.80;;;;;;;;;;5097222;28;20023;-77
2022/08/12 02:32:02;;;;;;;3.08;1.85;;;;;;;;;;5100123;28;20032;-78
2022/08/12 02:34:28;;;;;;;2.90;1.90;;;;;;;;;;5082685;28;20059;-77
2022/08/12 02:36:54;;;;;;;3.53;1.90;;;;;;;;;;5101221;28;20024;-78
2022/08/12 02:39:25;;;;;;;2.20;1.70;;;;;;;;;;5098361;28;20028;-80
2022/08/12 02:41:52;;;;;;;4.30;1.67;;;;;;;;;;5104363;28;20024;-78
2022/08/12 02:44:21;;;;;;;2.80;1.73;;;;;;;;;;5116038;28;20007;-78
2022/08/12 02:46:49;;;;;;;3.33;1.80;;;;;;;;;;5119849;28;20031;-78
2022/08/12 02:49:33;;;;;;;3.05;2.13;;;;;;;;;;5101610;28;20016;-77
2022/08/12 02:51:59;;;;;;;3.75;2.00;;;;;;;;;;5118575;28;20019;-77
2022/08/12 02:54:25;;;;;;;3.00;1.92;;;;;;;;;;5098326;28;20077;-77
2022/08/12 02:56:52;;;;;;;8.73;2.10;;;;;;;;;;5114305;28;20046;-77
2022/08/12 02:59:21;;;;;;;2.85;1.95;;;;;;;;;;5111620;28;20088;-78
2022/08/12 03:01:49;;;;;;;3.90;2.10;;;;;;;;;;5113333;28;20020;-78
2022/08/12 03:04:31;;;;;;;3.45;1.73;;;;;;;;;;5106170;28;20034;-78
2022/08/12 03:07:08;;;;;;;7.13;2.00;;;;;;;;;;5097644;28;20024;-78
2022/08/12 03:09:44;;;;;;;7.35;2.08;;;;;;;;;;5097826;28;20062;-78
2022/08/12 03:12:12;;;;;;;3.83;2.00;;;;;;;;;;5100452;28;20047;-78
2022/08/12 03:14:41;;;;;;;7.07;1.90;;;;;;;;;;5099378;28;20031;-78
2022/08/12 03:17:20;;;;;;;4.97;1.77;;;;;;;;;;5098595;28;20037;-79
2022/08/12 03:19:45;;;;;;;5.30;2.05;;;;;;;;;;5100177;28;20036;-80
2022/08/12 03:22:13;;;;;;;3.42;1.90;;;;;;;;;;5099146;28;20039;-77
2022/08/12 03:24:41;;;;;;;3.60;1.80;;;;;;;;;;5100531;28;20034;-78
2022/08/12 03:27:09;;;;;;;5.00;1.83;;;;;;;;;;5097257;28;20050;-77
2022/08/12 03:29:37;;;;;;;4.07;1.75;;;;;;;;;;5098759;28;20553;-76
2022/08/12 03:32:03;;;;;;;3.17;2.00;;;;;;;;;;5100558;28;20102;-78
2022/08/12 03:34:34;;;;;;;2.72;1.90;;;;;;;;;;5081032;28;20031;-79
2022/08/12 03:37:01;;;;;;;7.85;2.30;;;;;;;;;;5098122;28;20024;-78
2022/08/12 03:42:24;;;;;;;2.85;2.00;;;;;;;;;;5097228;28;20067;-78
2022/08/12 04:01:56;;;;;;;2.85;2.13;;;;;;;;;;5095717;28;20035;-77
2022/08/12 04:04:27;;;;;;;6.43;1.92;;;;;;;;;;5095439;28;20030;-77
2022/08/12 04:06:52;;;;;;;3.55;2.17;;;;;;;;;;5077701;28;20432;-78
2022/08/12 04:09:21;;;;;;;4.38;2.05;;;;;;;;;;5077669;28;20025;-78
2022/08/12 04:14:32;;;;;;;6.13;2.00;;;;;;;;;;5097523;28;20035;-78
2022/08/12 04:16:57;;;;;;;2.65;1.80;;;;;;;;;;5095715;28;20466;-77
2022/08/12 04:19:24;;;;;;;5.47;2.45;;;;;;;;;;5094667;28;20043;-77
2022/08/12 04:21:50;;;;;;;5.43;2.03;;;;;;;;;;5094738;28;20155;-79
2022/08/12 04:24:17;;;;;;;9.60;2.30;;;;;;;;;;5095080;28;20043;-78
2022/08/12 04:26:42;;;;;;;3.22;2.20;;;;;;;;;;5095173;28;20016;-77
2022/08/12 04:29:09;;;;;;;7.10;2.30;;;;;;;;;;5094519;28;20031;-77
2022/08/12 04:31:38;;;;;;;4.40;2.25;;;;;;;;;;5075659;28;20047;-79
2022/08/12 04:34:06;;;;;;;3.15;2.00;;;;;;;;;;5094727;28;20028;-80
2022/08/12 04:36:33;;;;;;;4.85;2.08;;;;;;;;;;5077441;28;20427;-78
2022/08/12 04:38:58;;;;;;;5.25;2.30;;;;;;;;;;5096151;28;20067;-78
2022/08/12 04:41:26;;;;;;;3.70;1.98;;;;;;;;;;5095776;28;20032;-77
2022/08/12 04:43:51;;;;;;;7.00;2.30;;;;;;;;;;5076602;28;20388;-78
2022/08/12 04:46:16;;;;;;;5.25;2.40;;;;;;;;;;5080619;28;20024;-78
2022/08/12 04:48:42;;;;;;;3.10;2.08;;;;;;;;;;5095490;28;20016;-77
2022/08/12 04:51:08;;;;;;;3.28;2.00;;;;;;;;;;5075602;28;20393;-77
2022/08/12 04:53:34;;;;;;;3.67;2.10;;;;;;;;;;5093377;28;20054;-77
2022/08/12 04:55:59;;;;;;;7.20;2.28;;;;;;;;;;5097620;28;20384;-78
2022/08/12 04:58:26;;;;;;;3.70;2.30;;;;;;;;;;5081786;28;20032;-78
2022/08/12 05:00:52;;;;;;;3.72;2.28;;;;;;;;;;5098088;28;20125;-77
2022/08/12 05:03:17;;;;;;;4.47;2.13;;;;;;;;;;5096815;28;20046;-77
2022/08/12 05:05:43;;;;;;;5.18;2.42;;;;;;;;;;5099223;28;20028;-79
2022/08/12 05:08:11;;;;;;;6.18;2.30;;;;;;;;;;5098682;28;20393;-78
2022/08/12 05:10:36;;;;;;;3.78;2.28;;;;;;;;;;5096720;28;20024;-77
2022/08/12 05:13:07;;;;;;;7.07;2.37;;;;;;;;;;5097248;28;20030;-77
2022/08/12 05:15:36;;;;;;;4.72;2.67;;;;;;;;;;5097112;28;20795;-77
2022/08/12 05:18:02;;;;;;;3.78;2.40;;;;;;;;;;5099373;28;20031;-78
2022/08/12 05:20:27;;;;;;;15.05;2.55;;;;;;;;;;5100778;28;20024;-78
2022/08/12 05:23:08;;;;;;;6.30;2.45;;;;;;;;;;5099283;28;20031;-77
2022/08/12 05:25:33;;;;;;;5.28;2.30;;;;;;;;;;5099122;28;20469;-77
2022/08/12 05:27:59;;;;;;;9.50;2.30;;;;;;;;;;5098185;28;20031;-77
2022/08/12 05:30:26;;;;;;;7.68;2.50;;;;;;;;;;5101231;28;20031;-77
2022/08/12 05:32:51;;;;;;;3.05;2.13;;;;;;;;;;5098477;28;20024;-77
2022/08/12 05:35:16;;;;;;;2.97;2.10;;;;;;;;;;5099210;28;20073;-78
2022/08/12 05:37:41;;;;;;;10.35;2.58;;;;;;;;;;5096667;28;20055;-77
2022/08/12 05:40:07;;;;;;;4.10;2.47;;;;;;;;;;5097711;28;20027;-78
2022/08/12 05:42:32;;;;;;;5.20;2.38;;;;;;;;;;5096832;28;20288;-77
2022/08/12 05:44:59;;;;;;;3.57;2.47;;;;;;;;;;5097251;28;20020;-79
2022/08/12 05:47:24;;;;;;;5.50;2.30;;;;;;;;;;5100036;28;20403;-77
2022/08/12 05:49:49;;;;;;;5.22;2.17;;;;;;;;;;5096324;28;20478;-77
2022/08/12 05:52:15;;;;;;;6.07;2.40;;;;;;;;;;5080642;28;20024;-77
2022/08/12 05:54:43;;;;;;;5.87;2.40;;;;;;;;;;5100249;28;20257;-77
2022/08/12 05:57:10;;;;;;;3.40;2.38;;;;;;;;;;5099399;28;20261;-78
2022/08/12 05:59:37;;;;;;;4.75;2.30;;;;;;;;;;5100817;28;20035;-77
2022/08/12 06:02:06;;;;;;;6.30;2.38;;;;;;;;;;5098503;28;20381;-78
2022/08/12 06:04:32;;;;;;;3.03;2.05;;;;;;;;;;5098130;28;20504;-78
2022/08/12 06:06:57;;;;;;;4.82;2.03;;;;;;;;;;5096088;28;20028;-78
2022/08/12 06:09:25;;;;;;;6.57;2.53;;;;;;;;;;5096599;28;20028;-77
2022/08/12 06:11:50;;;;;;;4.75;2.65;;;;;;;;;;5096666;28;20389;-77
2022/08/12 06:14:15;;;;;;;7.35;2.03;;;;;;;;;;5097252;28;20027;-78
2022/08/12 06:16:42;;;;;;;5.00;2.07;;;;;;;;;;5096774;28;20024;-78
2022/08/12 06:19:09;;;;;;;5.07;2.10;;;;;;;;;;5096708;28;20288;-78
2022/08/12 06:21:36;;;;;;;4.60;2.30;;;;;;;;;;5099786;28;20047;-78
2022/08/12 06:24:02;;;;;;;4.00;2.28;;;;;;;;;;5100394;28;20020;-78
2022/08/12 06:26:27;;;;;;;2.75;1.90;;;;;;;;;;5101270;28;20107;-79
2022/08/12 06:28:53;;;;;;;5.93;2.58;;;;;;;;;;5081869;28;20127;-77
2022/08/12 06:31:19;;;;;;;3.78;2.53;;;;;;;;;;5096417;28;20023;-78
2022/08/12 06:33:46;;;;;;;7.78;2.20;;;;;;;;;;5099309;28;20020;-79
2022/08/12 06:36:17;;;;;;;6.80;2.38;;;;;;;;;;5101803;28;20038;-78
2022/08/12 06:38:44;;;;;;;5.60;2.30;;;;;;;;;;5101322;28;20030;-79
2022/08/12 06:43:54;;;;;;;4.45;2.55;;;;;;;;;;5098462;28;20117;-78
2022/08/12 06:46:20;;;;;;;6.45;2.80;;;;;;;;;;5099410;28;20028;-78
2022/08/12 06:48:47;;;;;;;3.05;2.10;;;;;;;;;;5097446;28;20024;-78
2022/08/12 06:51:12;;;;;;;3.80;2.40;;;;;;;;;;5099963;28;20103;-78
2022/08/12 06:53:37;;;;;;;11.07;2.47;;;;;;;;;;5099828;28;20063;-79
2022/08/12 06:56:03;;;;;;;7.40;2.57;;;;;;;;;;5081582;28;20024;-77
2022/08/12 06:58:30;;;;;;;3.70;2.15;;;;;;;;;;5097847;28;20281;-78
2022/08/12 07:00:57;;;;;;;6.20;2.70;;;;;;;;;;5098453;28;20028;-78
2022/08/12 07:03:27;;;;;;;5.45;2.40;;;;;;;;;;5100690;28;20035;-78
2022/08/12 07:06:04;;;;;;;6.15;2.30;;;;;;;;;;5084964;28;20024;-78
2022/08/12 07:08:33;;;;;;;5.10;2.10;;;;;;;;;;5100075;28;20024;-77
2022/08/12 07:11:00;;;;;;;6.50;2.40;;;;;;;;;;5096327;28;20020;-78
2022/08/12 07:13:43;;;;;;;5.55;2.40;;;;;;;;;;5097251;28;20024;-77
2022/08/12 07:16:17;;;;;;;9.93;2.97;;;;;;;;;;5080202;28;20028;-78
2022/08/12 07:18:46;;;;;;;5.28;2.25;;;;;;;;;;5097836;28;20024;-77
2022/08/12 07:21:13;;;;;;;7.47;2.60;;;;;;;;;;5094341;28;20058;-77
2022/08/12 07:23:40;;;;;;;6.90;2.58;;;;;;;;;;5076341;28;20031;-77
2022/08/12 07:26:07;;;;;;;4.05;2.30;;;;;;;;;;5078214;28;20039;-78
2022/08/12 07:28:38;;;;;;;5.82;2.22;;;;;;;;;;5098032;28;20061;-78
2022/08/12 07:31:06;;;;;;;3.72;2.20;;;;;;;;;;5096571;28;20027;-78
2022/08/12 07:33:32;;;;;;;3.30;2.40;;;;;;;;;;5076717;28;20024;-77
2022/08/12 07:36:01;;;;;;;3.53;2.20;;;;;;;;;;5075848;28;20028;-78
2022/08/12 07:38:29;;;;;;;4.93;2.17;;;;;;;;;;5093714;28;20397;-78
2022/08/12 07:40:56;;;;;;;2.92;2.10;;;;;;;;;;5094877;28;20073;-78
2022/08/12 07:43:22;;;;;;;7.38;2.28;;;;;;;;;;5095303;28;20020;-79
2022/08/12 07:45:49;;;;;;;8.68;2.47;;;;;;;;;;5095379;28;20024;-78
2022/08/12 07:48:15;;;;;;;9.20;2.38;;;;;;;;;;5095840;28;20111;-78
2022/08/12 07:50:40;;;;;;;5.13;2.30;;;;;;;;;;5079060;28;20088;-78
2022/08/12 07:53:05;;;;;;;11.40;2.42;;;;;;;;;;5095728;28;20027;-78
2022/08/12 07:55:30;;;;;;;13.57;2.93;;;;;;;;;;5076956;28;20032;-77
2022/08/12 07:57:58;;;;;;;6.90;2.10;;;;;;;;;;5093419;28;20441;-77
2022/08/12 08:00:25;;;;;;;5.20;2.10;;;;;;;;;;5094805;28;20729;-78
2022/08/12 08:02:53;;;;;;;4.25;2.15;;;;;;;;;;5099791;28;20028;-78
2022/08/12 08:05:19;;;;;;;7.63;2.33;;;;;;;;;;5081725;28;20107;-77
2022/08/12 08:07:45;;;;;;;3.45;1.98;;;;;;;;;;5078993;28;20032;-79
2022/08/12 08:10:11;;;;;;;5.22;2.22;;;;;;;;;;5079374;28;20038;-77
2022/08/12 08:12:56;;;;;;;6.15;2.13;;;;;;;;;;5097719;28;20024;-77
2022/08/12 08:15:27;;;;;;;7.88;1.90;;;;;;;;;;5098404;28;20026;-77
2022/08/12 08:17:56;;;;;;;15.13;2.33;;;;;;;;;;5096836;28;20048;-77
2022/08/12 08:20:27;;;;;;;4.57;1.92;;;;;;;;;;5076806;28;20062;-77
2022/08/12 08:22:52;;;;;;;8.25;2.20;;;;;;;;;;5096538;28;20020;-78
2022/08/12 08:25:19;;;;;;;5.38;2.00;;;;;;;;;;5081636;28;20043;-78
2022/08/12 08:27:45;;;;;;;6.75;1.80;;;;;;;;;;5101382;28;20126;-78
2022/08/12 08:30:12;;;;;;;3.70;1.70;;;;;;;;;;5100636;28;20024;-77
2022/08/12 08:32:38;;;;;;;4.38;2.05;;;;;;;;;;5097305;28;20036;-78
2022/08/12 08:35:09;;;;;;;4.72;1.50;;;;;;;;;;5081846;28;20499;-78
2022/08/12 08:37:35;;;;;;;14.45;2.53;;;;;;;;;;5104047;28;20050;-78
2022/08/12 08:42:35;;;;;;;8.68;1.95;;;;;;;;;;5102537;28;20032;-78
2022/08/12 08:42:45;;;;;;;6.97;2.00;;;;;;;;;;5104894;28;20028;-79
2022/08/12 08:45:14;;;;;;;8.47;1.80;;;;;;;;;;5107224;28;20062;-77
2022/08/12 08:47:47;;;;;;;3.05;1.73;;;;;;;;;;5098491;28;20258;-77
2022/08/12 08:50:15;;;;;;;4.95;1.67;;;;;;;;;;5103596;28;20024;-78
2022/08/12 08:52:41;;;;;;;3.08;1.70;;;;;;;;;;5101110;28;20051;-78
2022/08/12 08:55:15;;;;;;;6.82;1.65;;;;;;;;;;5102341;28;20027;-78
2022/08/12 08:57:44;;;;;;;3.78;1.67;;;;;;;;;;5102304;28;20382;-78
2022/08/12 09:00:12;;;;;;;2.47;1.50;;;;;;;;;;5081367;28;20083;-78
2022/08/12 09:02:38;;;;;;;3.97;1.10;;;;;;;;;;5098306;28;20020;-78
2022/08/12 09:05:03;;;;;;;5.23;1.00;;;;;;;;;;5097940;28;20030;-77
2022/08/12 09:07:28;;;;;;;4.18;1.20;;;;;;;;;;5097354;28;20248;-77
2022/08/12 09:09:56;;;;;;;4.30;1.30;;;;;;;;;;5098946;28;20024;-78
2022/08/12 09:15:09;;;;;;;4.68;1.30;;;;;;;;;;5061659;28;20047;-77
2022/08/12 09:17:35;;;;;;;2.80;1.08;;;;;;;;;;5101548;28;20031;-77
2022/08/12 09:20:00;;;;;;;1.88;1.00;;;;;;;;;;5101831;28;20492;-79
2022/08/12 09:22:25;;;;;;;3.17;1.00;;;;;;;;;;5099452;28;20028;-78
2022/08/12 09:24:51;;;;;;;1.13;0.90;;;;;;;;;;5104773;28;20024;-79
2022/08/12 09:27:17;;;;;;;1.27;0.90;;;;;;;;;;5083789;28;20290;-79
2022/08/12 09:29:44;;;;;;;3.67;0.80;;;;;;;;;;5102452;28;20016;-78
2022/08/12 09:32:10;;;;;;;8.57;1.25;;;;;;;;;;5080992;28;20020;-78
2022/08/12 09:34:35;;;;;;;2.15;1.05;;;;;;;;;;5098974;28;20093;-78
2022/08/12 09:37:01;;;;;;;10.17;1.10;;;;;;;;;;5097817;28;20042;-77
2022/08/12 09:39:27;;;;;;;1.98;1.00;;;;;;;;;;5099999;28;20364;-78
2022/08/12 09:47:35;;;;;;;4.82;1.30;;;;;;;;;;5098813;28;20458;-77
2022/08/12 09:50:00;;;;;;;5.50;1.20;;;;;;;;;;5097280;28;20020;-77
2022/08/12 09:52:25;;;;;;;2.80;1.10;;;;;;;;;;5099853;28;20050;-78
2022/08/12 09:54:50;;;;;;;2.00;1.17;;;;;;;;;;5100566;28;20398;-77
2022/08/12 09:57:19;;;;;;;1.20;1.10;;;;;;;;;;5100448;28;20288;-78
2022/08/12 09:59:44;;;;;;;1.92;1.13;;;;;;;;;;5101140;28;20273;-78
2022/08/12 10:02:11;;;;;;;2.20;1.27;;;;;;;;;;5099392;28;20383;-79
2022/08/12 10:04:41;;;;;;;1.98;1.40;;;;;;;;;;5098070;28;20318;-78
2022/08/12 10:07:06;;;;;;;6.00;1.70;;;;;;;;;;5095563;28;20465;-76
2022/08/12 10:09:32;;;;;;;4.45;1.40;;;;;;;;;;5096067;28;20031;-77
2022/08/12 10:14:43;;;;;;;3.92;1.33;;;;;;;;;;5096957;28;20388;-77
2022/08/12 10:17:08;;;;;;;2.10;1.20;;;;;;;;;;5078113;28;20114;-77
2022/08/12 10:19:33;;;;;;;4.27;1.27;;;;;;;;;;5078218;28;20115;-78
2022/08/12 10:22:00;;;;;;;2.50;1.20;;;;;;;;;;5095816;28;20288;-76
2022/08/12 10:24:25;;;;;;;1.38;1.10;;;;;;;;;;5095408;28;20253;-77
2022/08/12 10:29:47;;;;;;;;;;;;;;;;;;5096351;28;20112;-77
2022/08/12 10:32:20;;;;;;;4.82;1.23;;;;;;;;;;5095392;28;19908;-77
2022/08/12 10:34:48;;;;;;;4.78;1.27;;;;;;;;;;5095487;28;20492;-77
2022/08/12 10:37:14;;;;;;;4.57;1.40;;;;;;;;;;5095593;28;20035;-77
2022/08/12 10:39:39;;;;;;;5.25;1.30;;;;;;;;;;5097489;28;20035;-79
2022/08/12 10:45:03;;;;;;;5.65;1.40;;;;;;;;;;5103637;28;20103;-79
2022/08/12 10:47:34;;;;;;;2.53;1.30;;;;;;;;;;5085782;28;20392;-79
2022/08/12 10:50:00;;;;;;;1.88;1.25;;;;;;;;;;5101485;28;20024;-77
2022/08/12 10:52:29;;;;;;;5.13;1.40;;;;;;;;;;5080780;28;20547;-78
2022/08/12 10:54:54;;;;;;;3.75;1.42;;;;;;;;;;5099512;28;20024;-78
2022/08/12 10:57:22;;;;;;;1.70;1.15;;;;;;;;;;5080837;28;20034;-78
2022/08/12 10:59:47;;;;;;;11.77;1.40;;;;;;;;;;5097212;28;20070;-77
2022/08/12 11:02:13;;;;;;;3.95;1.50;;;;;;;;;;5099031;28;20024;-77
2022/08/12 11:04:39;;;;;;;4.68;1.40;;;;;;;;;;5080478;28;20032;-78
2022/08/12 11:07:05;;;;;;;1.42;1.10;;;;;;;;;;5098924;28;20028;-78
2022/08/12 11:09:31;;;;;;;2.10;1.33;;;;;;;;;;5096177;28;20078;-79
2022/08/12 11:12:05;;;;;;;1.70;1.20;;;;;;;;;;5094668;28;20020;-77
2022/08/12 11:14:33;;;;;;;1.75;1.20;;;;;;;;;;5094945;28;20020;-77
2022/08/12 11:17:03;;;;;;;2.85;1.23;;;;;;;;;;5094318;28;20106;-77
2022/08/12 11:19:31;;;;;;;2.80;1.20;;;;;;;;;;5095731;28;20385;-78
2022/08/12 11:21:57;;;;;;;3.25;1.23;;;;;;;;;;5097563;28;20046;-77
2022/08/12 11:24:26;;;;;;;7.60;1.40;;;;;;;;;;5096972;28;20027;-78
2022/08/12 11:26:53;;;;;;;2.50;1.17;;;;;;;;;;5095103;28;20035;-77
2022/08/12 11:29:22;;;;;;;2.92;1.10;;;;;;;;;;5095352;28;20024;-78
2022/08/12 11:31:47;;;;;;;4.32;1.38;;;;;;;;;;5096424;28;20028;-78
2022/08/12 11:34:13;;;;;;;4.65;1.48;;;;;;;;;;5095038;28;20073;-77
2022/08/12 11:36:47;;;;;;;2.38;1.20;;;;;;;;;;5095508;28;20394;-77
2022/08/12 11:39:13;;;;;;;1.20;1.10;;;;;;;;;;5076847;28;20468;-78
2022/08/12 11:41:39;;;;;;;3.10;1.13;;;;;;;;;;5096087;28;20052;-77
2022/08/12 11:44:04;;;;;;;4.18;1.20;;;;;;;;;;5094164;28;20260;-77
2022/08/12 11:46:34;;;;;;;6.07;1.45;;;;;;;;;;5093495;28;20066;-77
2022/08/12 11:48:59;;;;;;;7.20;1.33;;;;;;;;;;5093896;28;20027;-77
2022/08/12 11:51:24;;;;;;;2.50;1.10;;;;;;;;;;5094044;28;20027;-77
2022/08/12 11:53:50;;;;;;;2.40;1.33;;;;;;;;;;5093453;28;20035;-77
2022/08/12 11:56:15;;;;;;;4.53;1.37;;;;;;;;;;5095446;28;20267;-77
2022/08/12 11:58:40;;;;;;;1.57;1.20;;;;;;;;;;5094537;28;20287;-77
2022/08/12 12:01:05;;;;;;;1.60;1.23;;;;;;;;;;5075817;28;20020;-77
2022/08/12 12:03:31;;;;;;;1.40;1.30;;;;;;;;;;5074938;28;20129;-77
2022/08/12 12:06:03;;;;;;;1.90;1.15;;;;;;;;;;5093694;28;20031;-78
2022/08/12 12:08:30;;;;;;;3.17;1.20;;;;;;;;;;5076967;28;20027;-77
2022/08/12 12:10:55;;;;;;;1.90;1.27;;;;;;;;;;5096198;28;20050;-76
2022/08/12 12:13:21;;;;;;;1.73;1.10;;;;;;;;;;5094056;28;20435;-77
2022/08/12 12:15:46;;;;;;;3.83;1.20;;;;;;;;;;5094221;28;20101;-77
2022/08/12 12:18:23;;;;;;;1.95;1.48;;;;;;;;;;5096119;28;20059;-82
2022/08/12 12:20:49;;;;;;;5.30;1.27;;;;;;;;;;5097704;28;20024;-79
2022/08/12 12:23:14;;;;;;;2.78;1.30;;;;;;;;;;5097444;28;20055;-80
2022/08/12 12:25:40;;;;;;;4.15;1.27;;;;;;;;;;5097254;28;20028;-77
2022/08/12 12:28:05;;;;;;;2.63;1.27;;;;;;;;;;5095785;28;20020;-77
2022/08/12 12:30:30;;;;;;;2.13;1.43;;;;;;;;;;5094804;28;20035;-79
2022/08/12 12:32:56;;;;;;;3.10;1.40;;;;;;;;;;5095896;28;20253;-78
2022/08/12 12:35:21;;;;;;;3.00;1.40;;;;;;;;;;5094276;28;20107;-78
2022/08/12 12:37:53;;;;;;;4.90;1.30;;;;;;;;;;5096572;28;20114;-79
2022/08/12 12:40:19;;;;;;;2.50;1.50;;;;;;;;;;5078195;28;20028;-81
2022/08/12 12:42:45;;;;;;;2.90;1.40;;;;;;;;;;5098349;28;20389;-77
2022/08/12 12:45:10;;;;;;;4.00;1.33;;;;;;;;;;5100758;28;20080;-79
2022/08/12 12:47:36;;;;;;;5.97;1.40;;;;;;;;;;5097369;28;20074;-77
2022/08/12 12:50:01;;;;;;;3.90;1.38;;;;;;;;;;5093188;28;20093;-77
2022/08/12 12:52:26;;;;;;;2.77;1.40;;;;;;;;;;5076834;28;20031;-79
2022/08/12 12:54:57;;;;;;;1.80;1.40;;;;;;;;;;5094013;28;20259;-78
2022/08/12 12:57:23;;;;;;;3.70;1.30;;;;;;;;;;5093885;28;20028;-75
2022/08/12 13:00:13;;;;;;;6.32;1.50;;;;;;;;;;5093457;28;20043;-75
2022/08/12 13:02:39;;;;;;;5.85;1.20;;;;;;;;;;5093462;28;20158;-77
2022/08/12 13:05:06;;;;;;;1.80;1.20;;;;;;;;;;5093367;28;20023;-76
2022/08/12 13:07:37;;;;;;;4.15;1.25;;;;;;;;;;5093400;28;20052;-76
2022/08/12 13:10:03;;;;;;;2.22;1.27;;;;;;;;;;5075738;28;20062;-76
2022/08/12 13:12:29;;;;;;;4.93;1.10;;;;;;;;;;5092790;28;20024;-75
2022/08/12 13:14:54;;;;;;;6.38;1.48;;;;;;;;;;5092445;28;20020;-75
2022/08/12 13:17:20;;;;;;;2.40;1.20;;;;;;;;;;5095030;28;20043;-78
2022/08/12 13:19:45;;;;;;;5.07;1.33;;;;;;;;;;5097104;28;20047;-75
2022/08/12 13:22:19;;;;;;;1.43;1.20;;;;;;;;;;5097025;28;20031;-77
2022/08/12 13:24:45;;;;;;;4.22;1.33;;;;;;;;;;5079401;28;20334;-78
2022/08/12 13:27:11;;;;;;;6.82;1.20;;;;;;;;;;5096649;28;20028;-76
2022/08/12 13:29:37;;;;;;;3.47;1.20;;;;;;;;;;5096416;28;20107;-76
2022/08/12 13:32:04;;;;;;;3.05;1.15;;;;;;;;;;5096262;28;20318;-77
2022/08/12 13:34:31;;;;;;;4.25;1.10;;;;;;;;;;5077702;28;20046;-77
2022/08/12 13:36:56;;;;;;;3.15;1.38;;;;;;;;;;5096096;28;20047;-77
2022/08/12 13:39:21;;;;;;;2.28;1.30;;;;;;;;;;5095593;28;20149;-77
2022/08/12 13:41:47;;;;;;;1.27;1.10;;;;;;;;;;5095855;28;20016;-76
2022/08/12 13:44:12;;;;;;;1.85;1.48;;;;;;;;;;5095845;28;20753;-75
2022/08/12 13:46:40;;;;;;;1.73;1.17;;;;;;;;;;5096069;28;20016;-76
2022/08/12 13:49:10;;;;;;;1.35;1.17;;;;;;;;;;5077330;28;20031;-77
2022/08/12 13:51:36;;;;;;;1.27;1.10;;;;;;;;;;5095578;28;20046;-75
2022/08/12 13:54:03;;;;;;;4.68;1.30;;;;;;;;;;5095639;28;20473;-76
2022/08/12 13:56:32;;;;;;;4.03;1.10;;;;;;;;;;5095974;28;20016;-76
2022/08/12 13:58:58;;;;;;;5.03;1.30;;;;;;;;;;5095419;28;20075;-77
2022/08/12 14:01:23;;;;;;;3.00;1.20;;;;;;;;;;5095486;28;20510;-75
2022/08/12 14:03:48;;;;;;;3.13;1.30;;;;;;;;;;5095648;28;20030;-77
2022/08/12 14:06:15;;;;;;;1.00;0.90;;;;;;;;;;5096188;28;20332;-76
2022/08/12 14:08:41;;;;;;;1.58;1.08;;;;;;;;;;5095375;28;20261;-76
2022/08/12 14:11:06;;;;;;;1.08;0.95;;;;;;;;;;5095284;28;20031;-78
2022/08/12 14:13:36;;;;;;;4.88;1.00;;;;;;;;;;5095127;28;20160;-76
2022/08/12 14:16:02;;;;;;;1.70;1.13;;;;;;;;;;5095114;28;20020;-75
2022/08/12 14:18:29;;;;;;;2.33;1.10;;;;;;;;;;5095024;28;20024;-75
2022/08/12 14:20:57;;;;;;;4.00;1.13;;;;;;;;;;5095598;28;20028;-77
2022/08/12 14:23:24;;;;;;;2.65;1.27;;;;;;;;;;5095173;28;20099;-76
2022/08/12 14:25:54;;;;;;;3.40;1.30;;;;;;;;;;5095024;28;20426;-77
2022/08/12 14:28:22;;;;;;;1.75;0.90;;;;;;;;;;5094789;28;20024;-78
2022/08/12 14:31:01;;;;;;;3.40;1.02;;;;;;;;;;5095424;28;20019;-76
2022/08/12 14:33:33;;;;;;;8.48;1.30;;;;;;;;;;5096133;28;20024;-73
2022/08/12 14:36:01;;;;;;;5.13;1.27;;;;;;;;;;5095130;28;20030;-73
2022/08/12 14:38:27;;;;;;;3.33;0.95;;;;;;;;;;5094774;28;20412;-74
2022/08/12 14:40:57;;;;;;;3.08;1.20;;;;;;;;;;5095053;28;20051;-74
2022/08/12 14:43:26;;;;;;;3.42;1.10;;;;;;;;;;5095055;28;20028;-74
2022/08/12 14:45:53;;;;;;;4.68;1.13;;;;;;;;;;5095459;28;20016;-77
2022/08/12 14:48:19;;;;;;;1.73;1.20;;;;;;;;;;5078043;28;20478;-77
2022/08/12 14:50:46;;;;;;;2.65;1.15;;;;;;;;;;5094783;28;20020;-76
2022/08/12 14:53:13;;;;;;;3.85;1.10;;;;;;;;;;5094646;28;20056;-76
2022/08/12 14:55:40;;;;;;;1.83;1.10;;;;;;;;;;5094592;28;20114;-76
2022/08/12 14:58:07;;;;;;;5.88;1.25;;;;;;;;;;5094704;28;20392;-77
2022/08/12 15:03:17;;;;;;;1.70;1.17;;;;;;;;;;5095072;28;20031;-75
2022/08/12 15:05:43;;;;;;;5.65;1.23;;;;;;;;;;5094759;28;20020;-76
2022/08/12 15:08:12;;;;;;;3.80;1.05;;;;;;;;;;5094394;28;20023;-77
2022/08/12 15:10:40;;;;;;;1.48;1.00;;;;;;;;;;5094196;28;20020;-77
2022/08/12 15:13:05;;;;;;;1.10;1.00;;;;;;;;;;5075939;28;20023;-76
2022/08/12 15:15:41;;;;;;;1.83;1.10;;;;;;;;;;5075488;28;20024;-77
2022/08/12 15:18:12;;;;;;;6.97;2.45;;;;;;;;;;5093939;28;20095;-77
2022/08/12 15:20:37;;;;;;;2.88;1.70;;;;;;;;;;5075731;28;20032;-77
2022/08/12 15:23:05;;;;;;;1.75;1.30;;;;;;;;;;5093691;28;20027;-76
2022/08/12 15:25:30;;;;;;;4.18;1.10;;;;;;;;;;5094194;28;20543;-79
2022/08/12 15:27:58;;;;;;;3.20;1.02;;;;;;;;;;5077575;28;20032;-77
2022/08/12 15:30:25;;;;;;;3.60;1.58;;;;;;;;;;5095051;28;20020;-77
2022/08/12 15:32:52;;;;;;;2.42;1.40;;;;;;;;;;5094626;28;20036;-77
2022/08/12 15:35:18;;;;;;;1.20;1.10;;;;;;;;;;5094239;28;20099;-77
2022/08/12 15:37:43;;;;;;;1.50;1.20;;;;;;;;;;5094102;28;20031;-77
2022/08/12 15:40:10;;;;;;;1.37;1.20;;;;;;;;;;5093627;28;20027;-77
2022/08/12 15:42:36;;;;;;;3.50;1.10;;;;;;;;;;5075867;28;20496;-78
2022/08/12 15:45:02;;;;;;;1.50;1.05;;;;;;;;;;5093872;28;20028;-77
2022/08/12 15:47:27;;;;;;;2.33;1.20;;;;;;;;;;5075635;28;20024;-77
2022/08/12 15:49:53;;;;;;;2.17;1.20;;;;;;;;;;5094075;28;20435;-77
2022/08/12 15:52:24;;;;;;;1.90;1.10;;;;;;;;;;5094337;28;20263;-77
2022/08/12 15:54:50;;;;;;;3.33;1.20;;;;;;;;;;5076194;28;20024;-77
2022/08/12 15:57:17;;;;;;;3.03;1.38;;;;;;;;;;5093908;28;20085;-77
2022/08/12 15:59:43;;;;;;;4.25;1.40;;;;;;;;;;5093246;28;20031;-77
2022/08/12 16:02:08;;;;;;;3.58;1.20;;;;;;;;;;5094156;28;20023;-77
2022/08/12 16:04:35;;;;;;;1.23;1.10;;;;;;;;;;5094200;28;20019;-78
2022/08/12 16:07:00;;;;;;;3.20;1.30;;;;;;;;;;5093827;28;20365;-76
2022/08/12 16:09:26;;;;;;;3.17;1.20;;;;;;;;;;5093462;28;20056;-77
2022/08/12 16:11:51;;;;;;;2.28;1.15;;;;;;;;;;5093792;28;20603;-78
2022/08/12 16:14:16;;;;;;;2.43;1.10;;;;;;;;;;5093949;28;20024;-76
2022/08/12 16:16:42;;;;;;;2.37;1.13;;;;;;;;;;5093129;28;20284;-76
2022/08/12 16:19:07;;;;;;;2.10;1.17;;;;;;;;;;5095119;28;20032;-78
2022/08/12 16:21:32;;;;;;;1.43;1.20;;;;;;;;;;5093591;28;20055;-78
2022/08/12 16:24:00;;;;;;;1.23;1.13;;;;;;;;;;5093887;28;20431;-77
2022/08/12 16:26:27;;;;;;;2.42;1.20;;;;;;;;;;5093535;28;20034;-77
2022/08/12 16:28:54;;;;;;;2.10;1.10;;;;;;;;;;5093959;28;20020;-77
2022/08/12 16:31:20;;;;;;;1.58;1.00;;;;;;;;;;5093443;28;20051;-79